Time;durP1;ratioP1;P1;durP2;ratioP2;P2;SDS_P1;SDS_P2;PMS_P1;PMS_P2;Temp;Humidity;BMP_temperature;BMP_pressure;BME280_temperature;BME280_humidity;BME280_pressure;Samples;Min_cycle;Max_cycle;Signal;HPM_P1;HPM_P2
2023/05/01 00:01:40;;;;;;;2.67;1.90;;;;;;;15.11;48.83;100245.28;10261157;28;20065;-72
2023/05/01 00:06:41;;;;;;;2.13;1.58;;;;;;;15.08;48.99;100250.94;10261519;28;20047;-73
2023/05/01 00:11:43;;;;;;;3.00;1.50;;;;;;;15.09;48.97;100244.59;10247614;28;20054;-72
2023/05/01 00:16:45;;;;;;;2.40;1.63;;;;;;;15.03;49.15;100231.81;10262211;28;20097;-72
2023/05/01 00:21:47;;;;;;;2.10;1.60;;;;;;;15.03;49.22;100231.81;10239087;23;20070;-63
2023/05/01 00:26:49;;;;;;;2.97;1.35;;;;;;;14.98;49.35;100223.34;10241623;28;20067;-63
2023/05/01 00:31:50;;;;;;;4.70;2.00;;;;;;;14.88;49.69;100218.09;10211908;28;20055;-62
2023/05/01 00:36:51;;;;;;;2.83;2.00;;;;;;;14.80;49.72;100215.31;10202186;28;20061;-63
2023/05/01 00:41:54;;;;;;;2.47;1.92;;;;;;;14.75;49.85;100213.09;10204413;28;20047;-64
2023/05/01 00:46:58;;;;;;;2.88;1.85;;;;;;;14.73;49.86;100207.06;10205084;28;20051;-62
2023/05/01 00:52:00;;;;;;;4.05;2.08;;;;;;;14.70;49.83;100211.84;10203203;28;20547;-62
2023/05/01 00:57:02;;;;;;;2.25;1.63;;;;;;;14.67;49.79;100199.63;10209755;28;20197;-62
2023/05/01 01:02:04;;;;;;;2.83;1.63;;;;;;;14.61;50.00;100194.88;10210797;28;20063;-61
2023/05/01 01:07:10;;;;;;;1.77;1.60;;;;;;;14.56;50.27;100186.41;10214746;28;20051;-62
2023/05/01 01:12:16;;;;;;;2.90;2.10;;;;;;;14.50;50.48;100183.34;10215296;28;20355;-62
2023/05/01 01:17:36;;;;;;;3.30;2.15;;;;;;;14.52;50.37;100175.16;10200310;28;20055;-62
2023/05/01 01:22:42;;;;;;;3.25;1.90;;;;;;;14.47;50.78;100178.28;10211032;28;20054;-62
2023/05/01 01:28:29;;;;;;;5.25;1.83;;;;;;;14.43;50.99;100160.84;10209957;28;20146;-62
2023/05/01 01:33:47;;;;;;;2.00;1.80;;;;;;;14.30;51.21;100160.34;10185971;28;20653;-62
2023/05/01 01:39:09;;;;;;;3.30;1.92;;;;;;;14.21;51.87;100161.25;10207001;28;20059;-62
2023/05/01 01:44:29;;;;;;;4.65;2.45;;;;;;;14.11;52.12;100162.16;10209888;28;20051;-64
2023/05/01 01:49:33;;;;;;;4.05;3.00;;;;;;;14.04;52.39;100146.84;10210777;28;20059;-62
2023/05/01 01:54:37;;;;;;;;;;;;;;;13.96;53.09;100142.19;10210620;28;20713;-60
2023/05/01 01:59:41;;;;;;;3.58;2.63;;;;;;;13.87;53.32;100148.44;10210045;28;20318;-62
2023/05/01 02:04:43;;;;;;;3.47;3.17;;;;;;;13.81;53.37;100139.19;10214728;28;20047;-62
2023/05/01 02:09:45;;;;;;;3.85;3.30;;;;;;;13.73;53.68;100144.44;10212632;28;20043;-61
2023/05/01 02:14:50;;;;;;;4.40;3.70;;;;;;;13.64;53.75;100134.59;10209560;28;20692;-62
2023/05/01 02:19:53;;;;;;;4.72;3.22;;;;;;;13.60;54.17;100134.03;10212345;28;20550;-62
2023/05/01 02:24:58;;;;;;;5.78;3.25;;;;;;;13.53;54.29;100132.97;10207949;28;20288;-62
2023/05/01 02:30:00;;;;;;;;;;;;;;;13.49;54.40;100137.75;10208657;28;20063;-61
2023/05/01 02:35:02;;;;;;;3.70;3.40;;;;;;;13.42;54.60;100137.50;10209777;28;20730;-61
2023/05/01 02:40:06;;;;;;;4.85;3.42;;;;;;;13.33;54.72;100130.31;10209662;28;20060;-62
2023/05/01 02:45:10;;;;;;;4.55;3.25;;;;;;;13.34;54.78;100141.88;10208844;28;20512;-61
2023/05/01 02:50:14;;;;;;;4.40;3.67;;;;;;;13.30;54.95;100127.94;10215144;28;20212;-61
2023/05/01 02:55:16;;;;;;;4.23;3.07;;;;;;;13.27;55.02;100122.88;10212262;28;20059;-63
2023/05/01 03:00:18;;;;;;;5.43;4.20;;;;;;;13.22;55.15;100122.44;10207566;28;20547;-61
2023/05/01 03:05:20;;;;;;;5.57;3.00;;;;;;;13.19;55.08;100115.53;10213519;28;20158;-61
2023/05/01 03:10:21;;;;;;;4.43;3.42;;;;;;;13.12;55.36;100110.91;10208883;28;20133;-61
2023/05/01 03:15:22;;;;;;;3.92;3.58;;;;;;;13.04;55.65;100108.97;10208035;28;20082;-63
2023/05/01 03:20:24;;;;;;;3.58;3.28;;;;;;;13.02;55.57;100105.63;10207148;28;20047;-61
2023/05/01 03:25:27;;;;;;;6.68;3.85;;;;;;;13.01;55.67;100102.06;10212407;28;20141;-61
2023/05/01 03:30:28;;;;;;;5.18;3.45;;;;;;;12.96;55.51;100100.84;10204964;28;20612;-61
2023/05/01 03:35:30;;;;;;;3.67;3.38;;;;;;;12.92;55.74;100097.59;10210881;28;20043;-61
2023/05/01 03:40:32;;;;;;;3.33;3.03;;;;;;;12.96;55.49;100100.84;10210570;28;20062;-61
2023/05/01 03:45:33;;;;;;;4.93;3.38;;;;;;;12.91;55.54;100099.44;10209605;28;20106;-62
2023/05/01 03:50:35;;;;;;;6.03;3.80;;;;;;;12.89;55.46;100095.22;10208148;28;20105;-61
2023/05/01 03:55:37;;;;;;;3.65;3.15;;;;;;;12.85;55.64;100092.00;10204908;28;20062;-61
2023/05/01 04:00:38;;;;;;;4.15;3.67;;;;;;;12.79;55.85;100089.91;10208580;28;20053;-61
2023/05/01 04:05:40;;;;;;;3.83;3.50;;;;;;;12.75;56.16;100091.16;10209878;28;20051;-61
2023/05/01 04:10:41;;;;;;;4.68;3.50;;;;;;;12.74;56.14;100092.13;10200932;28;20051;-60
2023/05/01 04:15:45;;;;;;;4.13;3.35;;;;;;;12.75;56.31;100091.16;10202521;28;20063;-61
2023/05/01 04:20:47;;;;;;;3.90;3.33;;;;;;;12.70;56.21;100080.91;10202353;28;20781;-61
2023/05/01 04:25:48;;;;;;;4.05;2.92;;;;;;;12.67;56.31;100094.53;10217721;28;20051;-62
2023/05/01 04:30:50;;;;;;;5.15;3.72;;;;;;;12.68;56.34;100093.53;10202013;28;20652;-62
2023/05/01 04:35:51;;;;;;;4.18;3.00;;;;;;;12.64;56.38;100092.16;10200566;28;20085;-61
2023/05/01 04:40:52;;;;;;;4.43;3.67;;;;;;;12.61;56.79;100095.09;10205007;28;20142;-62
2023/05/01 04:45:54;;;;;;;5.88;4.05;;;;;;;12.63;56.54;100095.78;10210260;28;20153;-61
2023/05/01 04:50:56;;;;;;;4.63;3.53;;;;;;;12.66;56.44;100095.50;10204233;28;20055;-62
2023/05/01 04:55:57;;;;;;;4.07;3.42;;;;;;;12.70;56.55;100093.38;10219512;28;20069;-61
2023/05/01 05:00:59;;;;;;;4.18;3.50;;;;;;;12.71;56.33;100090.56;10205824;28;20058;-62
2023/05/01 05:06:00;;;;;;;4.22;3.78;;;;;;;12.73;56.58;100091.28;10203101;28;20090;-62
2023/05/01 05:11:02;;;;;;;4.78;3.80;;;;;;;12.79;56.41;100094.38;10207147;28;20051;-61
2023/05/01 05:16:05;;;;;;;6.18;4.18;;;;;;;12.81;56.29;100093.25;10207164;28;20047;-64
2023/05/01 05:21:07;;;;;;;5.38;3.75;;;;;;;12.83;56.28;100090.44;10210935;28;20062;-62
2023/05/01 05:26:09;;;;;;;5.05;3.67;;;;;;;12.85;56.31;100088.47;10214621;28;20162;-62
2023/05/01 05:31:11;;;;;;;4.47;3.78;;;;;;;12.89;56.52;100087.19;10207098;28;20052;-61
2023/05/01 05:36:12;;;;;;;6.72;3.67;;;;;;;12.97;56.24;100092.69;10202234;28;20086;-61
2023/05/01 05:41:15;;;;;;;5.00;3.47;;;;;;;12.98;56.09;100083.66;10185253;28;20055;-61
2023/05/01 05:46:16;;;;;;;3.72;3.40;;;;;;;13.08;55.91;100079.16;10200673;28;20085;-61
2023/05/01 05:51:18;;;;;;;6.03;3.90;;;;;;;13.19;55.47;100082.63;10205784;28;20134;-61
2023/05/01 05:56:20;;;;;;;4.07;3.67;;;;;;;13.31;55.00;100075.28;10200587;28;20051;-61
2023/05/01 06:01:21;;;;;;;4.00;3.60;;;;;;;13.31;55.09;100073.47;10207127;28;20047;-61
2023/05/01 06:06:24;;;;;;;5.72;4.18;;;;;;;13.38;54.64;100077.28;10217075;28;20070;-62
2023/05/01 06:11:25;;;;;;;5.05;4.00;;;;;;;13.51;54.45;100084.13;10201161;28;20416;-61
2023/05/01 06:16:28;;;;;;;4.07;3.67;;;;;;;13.56;54.42;100076.50;10205341;28;20157;-61
2023/05/01 06:21:31;;;;;;;4.00;3.63;;;;;;;13.64;54.74;100073.94;10204784;28;20047;-62
2023/05/01 06:26:32;;;;;;;4.95;3.80;;;;;;;13.72;54.30;100071.38;10203943;28;20146;-61
2023/05/01 06:31:34;;;;;;;5.43;4.25;;;;;;;13.90;53.55;100068.75;10198794;28;20055;-61
2023/05/01 06:36:36;;;;;;;4.75;3.63;;;;;;;14.03;52.95;100060.34;10201285;28;20522;-60
2023/05/01 06:41:38;;;;;;;6.45;4.05;;;;;;;14.12;52.85;100056.75;10213674;28;21076;-59
2023/05/01 06:46:39;;;;;;;5.95;3.65;;;;;;;14.25;51.78;100067.09;10203601;28;20555;-60
2023/05/01 06:51:41;;;;;;;4.30;3.22;;;;;;;14.41;51.58;100066.44;10204398;28;20129;-60
2023/05/01 06:56:42;;;;;;;4.15;3.75;;;;;;;14.50;50.12;100064.63;10199789;28;20062;-61
2023/05/01 07:01:44;;;;;;;6.03;4.85;;;;;;;14.59;49.71;100055.72;10202327;28;20062;-60
2023/05/01 07:06:45;;;;;;;6.20;4.22;;;;;;;14.67;49.29;100060.31;10206579;28;20143;-61
2023/05/01 07:11:47;;;;;;;5.07;3.40;;;;;;;14.86;49.82;100053.91;10207685;28;20063;-62
2023/05/01 07:16:49;;;;;;;4.28;3.85;;;;;;;15.00;50.40;100042.63;10204575;28;20054;-61
2023/05/01 07:21:50;;;;;;;4.28;3.88;;;;;;;15.13;49.34;100044.91;10205849;28;20058;-61
2023/05/01 07:26:52;;;;;;;5.05;4.03;;;;;;;15.27;48.70;100040.78;10204550;28;21084;-61
2023/05/01 07:31:54;;;;;;;4.60;3.60;;;;;;;15.45;48.22;100054.13;10208482;28;20058;-61
2023/05/01 07:36:57;;;;;;;6.93;4.30;;;;;;;15.65;45.83;100048.50;10200862;28;20155;-61
2023/05/01 07:41:59;;;;;;;4.63;3.97;;;;;;;15.78;46.90;100046.25;10200642;28;20058;-60
2023/05/01 07:47:04;;;;;;;5.78;3.88;;;;;;;15.90;45.11;100038.75;10200746;28;20155;-60
2023/05/01 07:52:06;;;;;;;4.65;3.85;;;;;;;16.05;43.55;100038.94;10204513;28;20511;-61
2023/05/01 07:57:07;;;;;;;5.05;4.07;;;;;;;16.22;43.28;100051.38;10195740;28;20054;-61
2023/05/01 08:02:10;;;;;;;5.63;3.95;;;;;;;16.18;44.23;100044.69;10200494;28;20051;-62
2023/05/01 08:07:11;;;;;;;5.55;4.13;;;;;;;16.13;43.93;100044.31;10195882;28;20148;-62
2023/05/01 08:12:13;;;;;;;4.20;3.80;;;;;;;16.16;43.90;100035.94;10180829;28;20132;-62
2023/05/01 08:17:14;;;;;;;6.22;4.25;;;;;;;16.30;43.19;100045.19;10160282;28;20051;-61
2023/05/01 08:22:16;;;;;;;4.85;4.40;;;;;;;16.41;43.64;100049.41;10149130;28;20050;-61
2023/05/01 08:27:18;;;;;;;4.65;3.83;;;;;;;16.49;43.44;100027.91;10153443;28;20046;-61
2023/05/01 08:32:20;;;;;;;5.20;4.13;;;;;;;16.62;43.59;100030.09;10148284;28;20055;-63
2023/05/01 08:37:21;;;;;;;5.68;4.40;;;;;;;16.61;43.60;100029.25;10151482;28;22914;-61
2023/05/01 08:42:23;;;;;;;4.07;3.35;;;;;;;16.66;43.84;100031.44;10148051;28;20729;-61
2023/05/01 08:47:27;;;;;;;5.68;4.35;;;;;;;16.71;43.55;100017.47;10146415;28;20051;-62
2023/05/01 08:52:31;;;;;;;4.68;4.07;;;;;;;16.92;43.55;100025.91;10149317;28;20074;-61
2023/05/01 08:57:35;;;;;;;6.60;4.10;;;;;;;17.10;43.08;100023.03;10151501;28;20704;-61
2023/05/01 09:02:39;;;;;;;4.05;3.65;;;;;;;17.28;42.99;100017.41;10153330;28;20059;-61
2023/05/01 09:07:41;;;;;;;;;;;;;;;17.40;42.26;100017.03;10159436;28;20059;-61
2023/05/01 09:12:47;;;;;;;5.00;4.13;;;;;;;17.55;42.97;100020.69;10155532;28;19933;-62
2023/05/01 09:17:49;;;;;;;4.20;3.88;;;;;;;17.72;42.50;100026.81;10148920;28;20043;-61
2023/05/01 09:22:51;;;;;;;5.40;4.63;;;;;;;17.91;42.21;100014.81;10145689;28;20519;-64
2023/05/01 09:27:54;;;;;;;5.22;4.05;;;;;;;18.01;42.79;100007.38;10152998;28;20389;-62
2023/05/01 09:33:08;;;;;;;5.45;4.22;;;;;;;18.09;42.57;100002.91;10176327;28;20054;-61
2023/05/01 09:38:16;;;;;;;4.70;4.22;;;;;;;18.29;41.65;100006.00;10171776;28;20169;-62
2023/05/01 09:43:28;;;;;;;4.90;4.40;;;;;;;18.59;41.43;100004.22;10157551;28;20191;-61
2023/05/01 09:48:31;;;;;;;5.28;4.75;;;;;;;18.76;41.55;99998.69;10156456;28;20839;-62
2023/05/01 09:53:38;;;;;;;5.10;3.90;;;;;;;19.26;40.16;99986.41;10143775;28;20067;-62
2023/05/01 09:58:39;;;;;;;7.57;4.57;;;;;;;19.35;40.61;99982.56;10153985;28;20052;-62
2023/05/01 10:03:43;;;;;;;7.15;4.28;;;;;;;19.17;40.05;99990.19;10156218;28;20175;-61
2023/05/01 10:08:49;;;;;;;6.75;4.70;;;;;;;19.10;40.92;99984.72;10171342;28;20052;-62
2023/05/01 10:14:09;;;;;;;5.32;4.00;;;;;;;19.13;40.04;99988.91;10157828;28;20574;-63
2023/05/01 10:19:12;;;;;;;4.32;3.38;;;;;;;19.32;40.32;99980.25;10154541;28;20051;-62
2023/05/01 10:24:15;;;;;;;4.22;3.80;;;;;;;19.66;38.45;99969.84;10155874;28;20636;-62
2023/05/01 10:29:22;;;;;;;3.97;3.63;;;;;;;20.21;36.27;99981.06;10161026;28;20055;-62
2023/05/01 10:34:24;;;;;;;5.32;3.50;;;;;;;20.60;36.04;99975.16;10157749;28;20075;-61
2023/05/01 10:39:33;;;;;;;9.32;4.03;;;;;;;20.82;35.29;99975.13;10160957;28;20134;-60
2023/05/01 10:44:36;;;;;;;4.00;3.38;;;;;;;21.04;35.57;99984.03;10158785;28;20096;-62
2023/05/01 10:50:04;;;;;;;3.37;2.80;;;;;;;21.33;34.55;99977.53;10161878;28;20097;-64
2023/05/01 10:55:43;;;;;;;4.68;3.53;;;;;;;21.60;33.29;99966.00;10168570;28;20048;-62
2023/05/01 11:01:31;;;;;;;3.97;3.47;;;;;;;22.04;32.54;99962.78;10159080;28;20051;-61
2023/05/01 11:06:34;;;;;;;3.65;3.25;;;;;;;22.58;31.87;99949.31;10140349;28;20036;-62
2023/05/01 11:11:36;;;;;;;4.72;3.45;;;;;;;22.87;31.90;99950.72;10154811;28;20580;-61
2023/05/01 11:16:40;;;;;;;5.82;3.08;;;;;;;23.30;30.33;99952.09;10156506;28;20043;-62
2023/05/01 11:21:42;;;;;;;3.25;2.95;;;;;;;24.23;29.04;99958.09;10156466;28;20047;-62
2023/05/01 11:26:44;;;;;;;3.05;2.75;;;;;;;24.15;28.47;99957.28;10157907;28;20223;-62
2023/05/01 11:31:47;;;;;;;3.78;2.85;;;;;;;24.65;28.18;99956.53;10169241;28;20060;-62
2023/05/01 11:36:51;;;;;;;2.85;2.40;;;;;;;24.49;28.56;99944.28;10150786;28;20114;-63
2023/05/01 11:42:08;;;;;;;2.90;2.40;;;;;;;24.52;28.62;99941.09;10154311;28;20060;-61
2023/05/01 11:47:10;;;;;;;3.00;2.70;;;;;;;24.69;28.33;99925.06;10153257;28;20146;-58
2023/05/01 11:52:11;;;;;;;5.50;3.05;;;;;;;24.47;28.19;99929.22;10158083;28;20075;-58
2023/05/01 11:57:13;;;;;;;3.30;2.77;;;;;;;24.32;28.88;99919.53;10153713;28;20058;-60
2023/05/01 12:02:19;;;;;;;;;;;;;;;23.96;28.76;99920.22;10155786;28;20043;-64
2023/05/01 12:07:22;;;;;;;3.42;3.13;;;;;;;23.78;29.22;99923.63;10154387;28;19923;-62
2023/05/01 12:12:23;;;;;;;4.43;3.03;;;;;;;24.13;28.91;99920.53;10156368;28;20051;-65
2023/05/01 12:17:27;;;;;;;3.35;2.80;;;;;;;24.49;28.33;99913.53;10154602;28;20058;-64
2023/05/01 12:22:29;;;;;;;3.92;3.20;;;;;;;24.39;27.99;99913.19;10181739;23;20110;-75
2023/05/01 12:27:31;;;;;;;3.37;2.97;;;;;;;24.56;28.69;99900.69;10162027;28;20040;-77
2023/05/01 12:32:33;;;;;;;3.35;2.83;;;;;;;24.66;28.62;99914.63;10114615;29;20154;-74
2023/05/01 12:37:35;;;;;;;4.30;3.20;;;;;;;24.74;27.82;99901.78;10105142;29;20052;-72
2023/05/01 12:42:37;;;;;;;3.20;3.00;;;;;;;24.64;28.30;99894.16;10103967;28;20169;-73
2023/05/01 12:47:39;;;;;;;4.05;2.78;;;;;;;24.53;27.81;99904.69;10101393;28;20962;-75
2023/05/01 12:52:40;;;;;;;3.87;2.50;;;;;;;24.60;28.08;99898.38;10104485;29;20511;-73
2023/05/01 12:57:53;;;;;;;2.47;2.17;;;;;;;24.49;28.35;99897.22;10104935;29;20811;-75
2023/05/01 13:03:02;;;;;;;2.77;2.43;;;;;;;24.38;28.32;99889.75;10125791;29;20088;-76
2023/05/01 13:08:04;;;;;;;2.35;2.10;;;;;;;24.16;28.06;99892.91;10129751;29;20047;-73
2023/05/01 13:13:06;;;;;;;5.00;2.47;;;;;;;23.88;28.32;99882.44;10106488;29;20063;-72
2023/05/01 13:18:07;;;;;;;3.70;3.13;;;;;;;23.57;28.94;99879.47;10101099;29;20314;-74
2023/05/01 13:23:12;;;;;;;2.95;2.70;;;;;;;23.24;29.15;99883.19;10100223;29;20056;-77
2023/05/01 13:28:18;;;;;;;4.60;2.55;;;;;;;23.45;29.00;99875.78;10099786;28;20123;-69
2023/05/01 13:33:20;;;;;;;3.03;2.20;;;;;;;23.39;28.93;99876.63;10104749;29;20047;-72
2023/05/01 13:38:23;;;;;;;2.93;2.63;;;;;;;22.86;29.20;99881.19;10103527;28;20072;-72
2023/05/01 13:43:25;;;;;;;;;;;;;;;22.72;29.67;99879.59;10105639;29;20547;-70
2023/05/01 13:48:26;;;;;;;2.42;2.22;;;;;;;22.57;30.17;99874.41;10104751;28;20299;-73
2023/05/01 13:53:29;;;;;;;2.40;2.15;;;;;;;22.37;30.37;99869.03;10107616;29;20091;-73
2023/05/01 13:58:31;;;;;;;3.67;3.17;;;;;;;22.40;30.33;99876.72;10142377;28;20084;-75
2023/05/01 14:03:39;;;;;;;3.17;2.63;;;;;;;22.38;29.90;99878.81;10130574;28;20152;-74
2023/05/01 14:08:42;;;;;;;2.45;2.15;;;;;;;22.41;30.21;99870.25;10123052;29;20300;-71
2023/05/01 14:13:45;;;;;;;5.23;2.63;;;;;;;22.24;30.56;99865.22;10113780;28;20059;-73
2023/05/01 14:18:47;;;;;;;2.80;2.60;;;;;;;22.06;29.91;99854.19;10119454;28;20131;-72
2023/05/01 14:23:51;;;;;;;2.95;2.47;;;;;;;22.04;30.95;99864.41;10109239;28;20271;-74
2023/05/01 14:28:54;;;;;;;3.13;2.53;;;;;;;21.79;30.85;99856.88;10119522;29;20064;-75
2023/05/01 14:33:57;;;;;;;3.20;2.90;;;;;;;21.63;31.50;99862.69;10110025;28;20047;-73
2023/05/01 14:39:01;;;;;;;2.97;2.42;;;;;;;21.48;31.45;99855.56;10110642;28;20862;-71
2023/05/01 14:44:03;;;;;;;2.60;2.35;;;;;;;21.13;35.15;99855.63;10102867;28;20056;-70
2023/05/01 14:49:05;;;;;;;3.45;2.28;;;;;;;21.04;33.23;99858.75;10103244;28;20728;-73
2023/05/01 14:54:08;;;;;;;3.28;2.40;;;;;;;20.94;33.05;99861.81;10114705;28;20044;-74
2023/05/01 14:59:10;;;;;;;;;;;;;;;20.80;33.70;99864.44;10119448;29;20765;-76
2023/05/01 15:04:11;;;;;;;5.10;2.58;;;;;;;20.65;33.20;99855.59;10178235;28;21127;-73
2023/05/01 15:09:13;;;;;;;3.00;2.55;;;;;;;20.47;33.60;99859.63;10150255;28;20072;-72
2023/05/01 15:14:15;;;;;;;3.13;2.63;;;;;;;20.46;33.38;99857.13;10120038;28;20056;-76
2023/05/01 15:19:17;;;;;;;2.78;2.53;;;;;;;20.51;33.68;99870.06;10119675;28;20068;-74
2023/05/01 15:24:19;;;;;;;3.05;2.50;;;;;;;20.38;33.98;99860.81;10113497;28;20056;-70
2023/05/01 15:29:21;;;;;;;2.95;2.50;;;;;;;20.48;34.71;99861.31;10106531;29;20189;-71
2023/05/01 15:34:22;;;;;;;3.08;2.65;;;;;;;20.53;34.19;99873.41;10112524;29;20669;-73
2023/05/01 15:39:24;;;;;;;3.25;2.13;;;;;;;20.54;34.16;99869.69;10113603;29;20056;-72
2023/05/01 15:44:26;;;;;;;2.65;2.30;;;;;;;20.57;34.35;99863.88;10130624;28;20052;-74
2023/05/01 15:49:28;;;;;;;2.88;2.63;;;;;;;20.52;34.20;99866.31;10163751;28;20079;-72
2023/05/01 15:54:29;;;;;;;3.97;2.30;;;;;;;20.40;34.58;99864.19;10132393;28;20056;-74
2023/05/01 15:59:30;;;;;;;3.53;3.08;;;;;;;20.49;34.56;99857.59;10123033;29;20059;-72
2023/05/01 16:04:32;;;;;;;3.17;2.53;;;;;;;20.48;34.37;99860.50;10113969;28;20530;-71
2023/05/01 16:09:33;;;;;;;3.08;2.22;;;;;;;20.47;34.27;99859.63;10111724;28;20537;-75
2023/05/01 16:14:40;;;;;;;4.18;3.50;;;;;;;20.41;34.24;99859.59;10132034;28;20084;-72
2023/05/01 16:19:41;;;;;;;3.30;3.00;;;;;;;20.46;34.50;99865.25;10114053;29;20689;-70
2023/05/01 16:24:43;;;;;;;2.90;2.60;;;;;;;20.34;34.81;99864.94;10114759;28;20594;-71
2023/05/01 16:29:44;;;;;;;3.58;2.63;;;;;;;20.21;34.68;99867.56;10115285;28;20552;-71
2023/05/01 16:34:46;;;;;;;2.83;2.45;;;;;;;20.05;35.17;99872.22;10117043;29;20392;-72
2023/05/01 16:39:48;;;;;;;5.03;2.50;;;;;;;19.99;35.20;99872.16;10121520;29;20115;-71
2023/05/01 16:44:49;;;;;;;3.45;2.42;;;;;;;19.91;35.01;99875.84;10116043;28;20048;-72
2023/05/01 16:49:52;;;;;;;3.40;2.78;;;;;;;19.86;35.39;99873.72;10111465;28;20052;-69
2023/05/01 16:54:55;;;;;;;4.65;2.88;;;;;;;19.72;35.64;99875.41;10113101;28;20052;-74
2023/05/01 16:59:56;;;;;;;2.30;2.10;;;;;;;19.68;36.10;99887.66;10113578;28;20054;-69
2023/05/01 17:04:59;;;;;;;2.63;2.40;;;;;;;19.60;36.39;99887.75;10107989;28;20124;-72
2023/05/01 17:10:00;;;;;;;3.75;3.42;;;;;;;19.48;37.09;99886.59;10116329;28;20731;-71
2023/05/01 17:15:03;;;;;;;2.35;2.15;;;;;;;19.36;37.10;99894.34;10123003;28;20152;-71
2023/05/01 17:20:05;;;;;;;4.57;3.22;;;;;;;19.28;37.25;99905.25;10131570;29;20048;-74
2023/05/01 17:25:07;;;;;;;3.75;3.03;;;;;;;19.08;38.03;99881.56;10134085;28;20112;-73
2023/05/01 17:30:09;;;;;;;3.25;2.95;;;;;;;19.17;38.37;99902.00;10131798;29;20060;-73
2023/05/01 17:35:10;;;;;;;2.22;2.00;;;;;;;19.17;38.15;99912.81;10133352;29;20063;-69
2023/05/01 17:40:11;;;;;;;3.40;3.10;;;;;;;19.11;39.02;99901.91;10146259;28;20062;-71
2023/05/01 17:45:13;;;;;;;3.95;3.35;;;;;;;19.16;39.37;99918.38;10141569;29;20051;-67
2023/05/01 17:50:14;;;;;;;3.25;2.88;;;;;;;19.08;39.04;99914.75;10142121;29;20060;-70
2023/05/01 17:55:16;;;;;;;3.35;3.08;;;;;;;19.12;39.02;99919.78;10129939;28;20700;-68
2023/05/01 18:00:20;;;;;;;3.75;3.17;;;;;;;19.05;39.49;99923.22;10126915;29;20116;-70
2023/05/01 18:05:21;;;;;;;4.40;2.90;;;;;;;18.97;39.94;99917.91;10129806;29;20063;-70
2023/05/01 18:10:23;;;;;;;5.38;4.57;;;;;;;19.00;39.64;99931.03;10134956;28;20099;-69
2023/05/01 18:15:26;;;;;;;;;;;;;;;18.93;39.45;99927.44;10152747;28;20052;-72
2023/05/01 18:20:28;;;;;;;4.10;3.35;;;;;;;18.89;39.63;99936.91;10189714;28;20539;-76
2023/05/01 18:25:30;;;;;;;4.47;4.07;;;;;;;18.84;40.76;99933.88;10141676;28;20143;-69
2023/05/01 18:30:31;;;;;;;4.45;4.05;;;;;;;18.69;40.09;99936.56;10165194;28;20370;-74
2023/05/01 18:35:33;;;;;;;5.32;4.82;;;;;;;18.68;41.14;99941.13;10150127;28;20071;-73
2023/05/01 18:40:34;;;;;;;4.78;4.28;;;;;;;18.64;41.60;99934.41;10116483;28;20055;-67
2023/05/01 18:45:36;;;;;;;6.57;5.88;;;;;;;18.64;42.14;99941.69;10109234;28;20805;-69
2023/05/01 18:50:37;;;;;;;10.35;6.30;;;;;;;18.61;42.74;99947.44;10110652;29;20744;-69
2023/05/01 18:55:38;;;;;;;6.57;5.97;;;;;;;18.58;42.95;99948.63;10110566;29;20056;-70
2023/05/01 19:00:40;;;;;;;5.53;5.03;;;;;;;18.66;43.04;99967.44;10119828;29;20052;-69
2023/05/01 19:05:41;;;;;;;5.93;5.43;;;;;;;18.68;42.62;99981.56;10115496;28;20463;-70
2023/05/01 19:10:43;;;;;;;5.25;4.47;;;;;;;18.66;43.51;99986.31;10117367;29;20072;-70
2023/05/01 19:15:45;;;;;;;6.50;5.50;;;;;;;18.64;42.90;99999.13;10113195;28;20060;-69
2023/05/01 19:20:46;;;;;;;4.85;4.35;;;;;;;18.64;43.72;100006.38;10108015;29;20057;-69
2023/05/01 19:25:48;;;;;;;5.13;4.40;;;;;;;18.58;43.48;100016.00;10110064;28;20063;-70
2023/05/01 19:30:49;;;;;;;5.28;4.03;;;;;;;18.59;43.36;100028.47;10111332;29;20060;-69
2023/05/01 19:35:51;;;;;;;7.85;5.03;;;;;;;18.56;43.80;100034.25;10113274;29;20056;-70
2023/05/01 19:40:52;;;;;;;3.10;2.80;;;;;;;18.51;44.06;100047.41;10109442;28;20063;-70
2023/05/01 19:45:54;;;;;;;3.00;2.25;;;;;;;18.48;44.62;100048.63;10109267;29;20060;-69
2023/05/01 19:50:56;;;;;;;2.28;2.08;;;;;;;18.32;44.50;100048.75;10113057;29;20643;-70
2023/05/01 19:55:58;;;;;;;9.63;5.43;;;;;;;18.28;44.56;100053.63;10113136;29;20546;-70
2023/05/01 20:01:02;;;;;;;2.75;2.47;;;;;;;18.23;44.66;100069.50;10109265;28;20717;-70
2023/05/01 20:06:05;;;;;;;2.38;1.98;;;;;;;18.06;44.94;100063.38;10106593;29;20063;-70
2023/05/01 20:11:06;;;;;;;3.20;2.67;;;;;;;17.98;44.99;100074.19;10105384;29;20141;-71
2023/05/01 20:16:08;;;;;;;3.42;2.10;;;;;;;17.89;46.39;100078.75;10110879;28;20066;-70
2023/05/01 20:21:10;;;;;;;1.70;1.60;;;;;;;17.89;46.03;100088.66;10109567;28;20062;-70
2023/05/01 20:26:12;;;;;;;3.95;2.08;;;;;;;17.66;47.08;100097.50;10101773;29;20060;-71
2023/05/01 20:31:13;;;;;;;2.10;1.90;;;;;;;17.46;47.25;100099.78;10121706;28;20147;-74
2023/05/01 20:36:16;;;;;;;2.15;1.83;;;;;;;17.31;47.86;100097.78;10129397;28;20451;-75
2023/05/01 20:41:17;;;;;;;2.00;1.88;;;;;;;17.36;47.71;100101.81;10128516;29;20072;-76
2023/05/01 20:46:19;;;;;;;3.22;2.78;;;;;;;17.26;47.74;100102.84;10121896;28;20114;-75
2023/05/01 20:51:20;;;;;;;3.00;1.90;;;;;;;17.08;48.59;100107.56;10117837;29;20079;-74
2023/05/01 20:56:22;;;;;;;2.63;2.40;;;;;;;16.87;48.96;100108.06;10123194;28;20651;-77
2023/05/01 21:01:24;;;;;;;2.85;2.30;;;;;;;16.88;49.18;100102.53;10114211;28;20052;-74
2023/05/01 21:06:26;;;;;;;2.38;2.17;;;;;;;16.91;49.33;100110.25;10130475;28;20551;-71
2023/05/01 21:11:27;;;;;;;1.90;1.73;;;;;;;16.78;49.17;100126.88;10119730;28;20053;-73
2023/05/01 21:16:29;;;;;;;1.85;1.55;;;;;;;16.87;49.37;100133.09;10133951;28;20056;-72
2023/05/01 21:21:34;;;;;;;2.20;1.60;;;;;;;16.90;48.46;100142.69;10086060;29;1109034;-76
2023/05/01 21:26:36;;;;;;;2.83;1.67;;;;;;;16.79;49.22;100133.06;10143405;29;20150;-76
2023/05/01 21:31:37;;;;;;;1.80;1.63;;;;;;;16.80;48.67;100137.44;10148178;28;20417;-76
2023/05/01 21:36:43;;;;;;;2.08;1.70;;;;;;;16.74;49.01;100130.88;10175437;29;20084;-74
2023/05/01 21:41:47;;;;;;;4.05;2.10;;;;;;;16.84;49.22;100141.47;10159260;29;20067;-74
2023/05/01 21:46:51;;;;;;;;;;;;;;;16.88;49.56;100142.84;10158053;28;20135;-73
2023/05/01 21:51:58;;;;;;;3.05;1.80;;;;;;;16.87;49.31;100151.06;10159886;28;19929;-72
2023/05/01 21:57:01;;;;;;;2.47;1.65;;;;;;;16.85;49.04;100153.91;10147857;29;20043;-75
2023/05/01 22:02:05;;;;;;;1.95;1.58;;;;;;;16.86;49.23;100160.97;10133974;28;20500;-72
2023/05/01 22:07:07;;;;;;;2.13;1.48;;;;;;;16.83;49.15;100155.06;10126486;29;20048;-74
2023/05/01 22:12:08;;;;;;;2.45;2.15;;;;;;;16.83;49.21;100155.94;10126221;28;20056;-73
2023/05/01 22:17:09;;;;;;;2.47;1.98;;;;;;;16.77;49.58;100157.44;10123829;29;20040;-72
2023/05/01 22:22:11;;;;;;;2.40;1.98;;;;;;;16.78;49.61;100158.25;10119083;29;20056;-75
2023/05/01 22:27:13;;;;;;;1.80;1.58;;;;;;;16.79;49.49;100165.31;10119923;28;20056;-70
2023/05/01 22:32:15;;;;;;;2.13;1.67;;;;;;;16.75;49.49;100174.72;10139869;29;20080;-75
2023/05/01 22:37:18;;;;;;;2.10;2.00;;;;;;;16.78;49.55;100180.63;10134676;28;20063;-71
2023/05/01 22:42:20;;;;;;;2.95;1.88;;;;;;;16.75;49.40;100186.34;10114483;29;20056;-71
2023/05/01 22:47:21;;;;;;;2.70;1.95;;;;;;;16.74;49.83;100178.44;10119802;28;20344;-73
2023/05/01 22:52:23;;;;;;;2.45;2.00;;;;;;;16.69;49.73;100186.13;10119309;29;20388;-71
2023/05/01 22:57:24;;;;;;;2.67;2.13;;;;;;;16.69;50.41;100186.13;10138699;29;20052;-74
2023/05/01 23:02:26;;;;;;;2.80;1.83;;;;;;;16.66;50.50;100197.22;10149335;29;20048;-73
2023/05/01 23:07:27;;;;;;;1.92;1.70;;;;;;;16.67;50.98;100191.69;10122169;28;20057;-73
2023/05/01 23:12:29;;;;;;;3.08;1.90;;;;;;;16.64;50.89;100202.75;10115427;29;20059;-72
2023/05/01 23:17:33;;;;;;;2.28;2.08;;;;;;;16.65;51.28;100217.88;10116507;29;20071;-73
2023/05/01 23:22:36;;;;;;;2.75;2.28;;;;;;;16.63;51.56;100219.88;10119144;29;20048;-71